sensor_id;sensor_type;location;lat;lon;timestamp;pressure;altitude;pressure_sealevel;temperature;humidity
55466;BME280;41329;41.594;23.810;2023-02-16T00:01:29;96470.84;;;2.45;54.89
55466;BME280;41329;41.594;23.810;2023-02-16T00:03:55;96511.63;;;2.60;54.55
55466;BME280;41329;41.594;23.810;2023-02-16T00:06:25;96517.09;;;2.60;54.33
55466;BME280;41329;41.594;23.810;2023-02-16T00:08:53;96493.75;;;2.49;54.23
55466;BME280;41329;41.594;23.810;2023-02-16T00:11:23;96522.50;;;2.65;54.26
55466;BME280;41329;41.594;23.810;2023-02-16T00:14:10;96513.25;;;2.61;54.42
55466;BME280;41329;41.594;23.810;2023-02-16T00:16:36;96520.59;;;2.65;54.44
55466;BME280;41329;41.594;23.810;2023-02-16T00:21:45;96512.16;;;2.62;54.48
55466;BME280;41329;41.594;23.810;2023-02-16T00:24:11;96514.44;;;2.55;54.23
55466;BME280;41329;41.594;23.810;2023-02-16T00:26:37;96525.88;;;2.57;54.23
55466;BME280;41329;41.594;23.810;2023-02-16T00:29:04;96502.00;;;2.44;54.33
55466;BME280;41329;41.594;23.810;2023-02-16T00:31:29;96530.28;;;2.53;54.42
55466;BME280;41329;41.594;23.810;2023-02-16T00:33:59;96517.53;;;2.48;53.97
55466;BME280;41329;41.594;23.810;2023-02-16T00:36:29;96516.16;;;2.46;54.26
55466;BME280;41329;41.594;23.810;2023-02-16T00:38:54;96523.03;;;2.43;54.23
55466;BME280;41329;41.594;23.810;2023-02-16T00:41:21;96515.16;;;2.42;54.63
55466;BME280;41329;41.594;23.810;2023-02-16T00:44:14;96521.97;;;2.39;54.62
55466;BME280;41329;41.594;23.810;2023-02-16T00:46:40;96523.38;;;2.37;54.58
55466;BME280;41329;41.594;23.810;2023-02-16T00:49:13;96519.09;;;2.31;54.66
55466;BME280;41329;41.594;23.810;2023-02-16T00:51:39;96505.56;;;2.21;54.56
55466;BME280;41329;41.594;23.810;2023-02-16T00:54:04;96513.75;;;2.21;54.40
55466;BME280;41329;41.594;23.810;2023-02-16T00:56:30;96514.09;;;2.14;54.12
55466;BME280;41329;41.594;23.810;2023-02-16T00:58:57;96507.53;;;2.15;54.21
55466;BME280;41329;41.594;23.810;2023-02-16T01:01:24;96490.75;;;2.03;54.34
55466;BME280;41329;41.594;23.810;2023-02-16T01:03:53;96510.03;;;2.12;54.35
55466;BME280;41329;41.594;23.810;2023-02-16T01:06:18;96504.88;;;2.10;54.59
55466;BME280;41329;41.594;23.810;2023-02-16T01:09:14;96495.09;;;2.04;55.29
55466;BME280;41329;41.594;23.810;2023-02-16T01:11:59;96482.03;;;2.01;55.64
55466;BME280;41329;41.594;23.810;2023-02-16T01:14:25;96431.63;;;1.70;56.17
55466;BME280;41329;41.594;23.810;2023-02-16T01:16:51;96465.78;;;1.91;56.15
55466;BME280;41329;41.594;23.810;2023-02-16T01:19:16;96486.63;;;2.06;55.61
55466;BME280;41329;41.594;23.810;2023-02-16T01:21:42;96489.06;;;2.07;55.13
55466;BME280;41329;41.594;23.810;2023-02-16T01:24:07;96475.84;;;1.96;55.63
55466;BME280;41329;41.594;23.810;2023-02-16T01:26:38;96467.28;;;2.02;55.14
55466;BME280;41329;41.594;23.810;2023-02-16T01:29:04;96427.50;;;1.73;54.98
55466;BME280;41329;41.594;23.810;2023-02-16T01:31:30;96481.50;;;1.99;54.81
55466;BME280;41329;41.594;23.810;2023-02-16T01:33:55;96474.19;;;1.95;55.06
55466;BME280;41329;41.594;23.810;2023-02-16T01:36:27;96485.28;;;2.03;55.37
55466;BME280;41329;41.594;23.810;2023-02-16T01:38:53;96463.09;;;1.86;56.05
55466;BME280;41329;41.594;23.810;2023-02-16T01:41:36;96490.53;;;2.00;56.18
55466;BME280;41329;41.594;23.810;2023-02-16T01:44:21;96461.47;;;1.85;55.83
55466;BME280;41329;41.594;23.810;2023-02-16T01:47:14;96489.16;;;1.97;55.11
55466;BME280;41329;41.594;23.810;2023-02-16T01:49:43;96483.75;;;1.92;55.20
55466;BME280;41329;41.594;23.810;2023-02-16T01:52:29;96474.31;;;1.85;55.35
55466;BME280;41329;41.594;23.810;2023-02-16T01:55:17;96473.72;;;1.88;54.95
55466;BME280;41329;41.594;23.810;2023-02-16T01:57:48;96475.16;;;1.80;55.26
55466;BME280;41329;41.594;23.810;2023-02-16T02:02:54;96481.56;;;1.71;55.59
55466;BME280;41329;41.594;23.810;2023-02-16T02:05:40;96448.81;;;1.42;55.62
55466;BME280;41329;41.594;23.810;2023-02-16T02:08:13;96469.22;;;1.50;55.65
55466;BME280;41329;41.594;23.810;2023-02-16T02:15:58;96454.47;;;1.22;55.83
55466;BME280;41329;41.594;23.810;2023-02-16T02:18:25;96465.59;;;1.26;56.44
55466;BME280;41329;41.594;23.810;2023-02-16T02:21:21;96476.50;;;1.26;56.31
55466;BME280;41329;41.594;23.810;2023-02-16T02:27:21;96466.91;;;1.00;56.50
55466;BME280;41329;41.594;23.810;2023-02-16T02:30:05;96461.50;;;0.95;56.16
55466;BME280;41329;41.594;23.810;2023-02-16T02:43:51;96469.47;;;0.86;56.88
55466;BME280;41329;41.594;23.810;2023-02-16T02:46:24;96400.28;;;0.44;57.06
55466;BME280;41329;41.594;23.810;2023-02-16T02:48:50;96462.13;;;0.82;57.17
55466;BME280;41329;41.594;23.810;2023-02-16T02:51:17;96461.59;;;0.80;56.98
55466;BME280;41329;41.594;23.810;2023-02-16T03:00:04;96451.81;;;0.79;57.48
55466;BME280;41329;41.594;23.810;2023-02-16T03:02:55;96458.34;;;0.78;57.60
55466;BME280;41329;41.594;23.810;2023-02-16T03:05:25;96451.25;;;0.77;56.96
55466;BME280;41329;41.594;23.810;2023-02-16T03:07:54;96461.31;;;0.81;57.32
55466;BME280;41329;41.594;23.810;2023-02-16T03:10:32;96460.78;;;0.79;57.15
55466;BME280;41329;41.594;23.810;2023-02-16T03:13:29;96458.91;;;0.75;56.69
55466;BME280;41329;41.594;23.810;2023-02-16T03:16:00;96449.97;;;0.69;56.54
55466;BME280;41329;41.594;23.810;2023-02-16T03:18:28;96456.50;;;0.68;56.92
55466;BME280;41329;41.594;23.810;2023-02-16T03:21:15;96463.34;;;0.66;57.02
55466;BME280;41329;41.594;23.810;2023-02-16T03:24:02;96465.47;;;0.69;57.02
55466;BME280;41329;41.594;23.810;2023-02-16T03:26:48;96463.91;;;0.63;57.39
55466;BME280;41329;41.594;23.810;2023-02-16T03:29:33;96469.63;;;0.61;57.23
55466;BME280;41329;41.594;23.810;2023-02-16T03:31:59;96446.56;;;0.49;57.64
55466;BME280;41329;41.594;23.810;2023-02-16T03:34:25;96459.56;;;0.57;57.79
55466;BME280;41329;41.594;23.810;2023-02-16T03:36:55;96463.09;;;0.57;57.88
55466;BME280;41329;41.594;23.810;2023-02-16T03:39:28;96453.06;;;0.53;57.93
55466;BME280;41329;41.594;23.810;2023-02-16T03:41:56;96467.53;;;0.48;58.38
55466;BME280;41329;41.594;23.810;2023-02-16T03:44:23;96462.06;;;0.48;58.38
55466;BME280;41329;41.594;23.810;2023-02-16T03:46:51;96447.44;;;0.39;58.00
55466;BME280;41329;41.594;23.810;2023-02-16T03:49:17;96463.97;;;0.48;57.75
55466;BME280;41329;41.594;23.810;2023-02-16T03:51:43;96460.50;;;0.42;57.97
55466;BME280;41329;41.594;23.810;2023-02-16T03:54:10;96456.75;;;0.28;58.15
55466;BME280;41329;41.594;23.810;2023-02-16T03:56:35;96461.34;;;0.33;58.11
55466;BME280;41329;41.594;23.810;2023-02-16T03:59:01;96457.53;;;0.34;58.17
55466;BME280;41329;41.594;23.810;2023-02-16T04:01:26;96458.34;;;0.29;57.77
55466;BME280;41329;41.594;23.810;2023-02-16T04:03:51;96458.94;;;0.26;57.33
55466;BME280;41329;41.594;23.810;2023-02-16T04:06:17;96452.44;;;0.12;57.27
55466;BME280;41329;41.594;23.810;2023-02-16T04:08:42;96463.63;;;0.16;57.88
55466;BME280;41329;41.594;23.810;2023-02-16T04:11:08;96463.34;;;0.17;58.04
55466;BME280;41329;41.594;23.810;2023-02-16T04:13:52;96447.03;;;0.07;58.48
55466;BME280;41329;41.594;23.810;2023-02-16T04:16:18;96465.25;;;0.12;58.44
55466;BME280;41329;41.594;23.810;2023-02-16T04:18:43;96474.78;;;0.04;58.67
55466;BME280;41329;41.594;23.810;2023-02-16T04:21:09;96468.84;;;0.02;58.81
55466;BME280;41329;41.594;23.810;2023-02-16T04:23:35;96462.34;;;-0.07;58.79
55466;BME280;41329;41.594;23.810;2023-02-16T04:26:00;96459.34;;;-0.11;59.14
55466;BME280;41329;41.594;23.810;2023-02-16T04:28:26;96457.19;;;-0.14;59.34
55466;BME280;41329;41.594;23.810;2023-02-16T04:30:51;96455.84;;;-0.16;59.37
55466;BME280;41329;41.594;23.810;2023-02-16T04:33:16;96464.25;;;-0.13;59.67
55466;BME280;41329;41.594;23.810;2023-02-16T04:35:42;96460.22;;;-0.20;59.53
55466;BME280;41329;41.594;23.810;2023-02-16T04:38:07;96466.19;;;-0.18;59.01
55466;BME280;41329;41.594;23.810;2023-02-16T04:40:33;96475.44;;;-0.19;58.41
55466;BME280;41329;41.594;23.810;2023-02-16T04:42:58;96465.94;;;-0.32;58.94
55466;BME280;41329;41.594;23.810;2023-02-16T04:45:24;96462.69;;;-0.34;59.32
55466;BME280;41329;41.594;23.810;2023-02-16T04:47:49;96477.06;;;-0.23;59.46
55466;BME280;41329;41.594;23.810;2023-02-16T04:50:14;96482.78;;;-0.25;59.35
55466;BME280;41329;41.594;23.810;2023-02-16T04:52:40;96469.47;;;-0.31;58.98
55466;BME280;41329;41.594;23.810;2023-02-16T04:55:06;96460.78;;;-0.38;58.96
55466;BME280;41329;41.594;23.810;2023-02-16T04:57:35;96474.09;;;-0.32;58.95
55466;BME280;41329;41.594;23.810;2023-02-16T05:00:01;96472.75;;;-0.34;58.80
55466;BME280;41329;41.594;23.810;2023-02-16T05:02:26;96482.81;;;-0.35;59.18
55466;BME280;41329;41.594;23.810;2023-02-16T05:04:52;96476.31;;;-0.39;59.35
55466;BME280;41329;41.594;23.810;2023-02-16T05:07:17;96474.69;;;-0.40;59.05
55466;BME280;41329;41.594;23.810;2023-02-16T05:09:42;96482.84;;;-0.40;59.29
55466;BME280;41329;41.594;23.810;2023-02-16T05:12:09;96489.91;;;-0.39;59.19
55466;BME280;41329;41.594;23.810;2023-02-16T05:14:53;96492.88;;;-0.40;59.26
55466;BME280;41329;41.594;23.810;2023-02-16T05:17:21;96484.47;;;-0.49;59.03
55466;BME280;41329;41.594;23.810;2023-02-16T05:19:52;96489.63;;;-0.47;59.17
55466;BME280;41329;41.594;23.810;2023-02-16T05:22:18;96497.00;;;-0.48;58.86
55466;BME280;41329;41.594;23.810;2023-02-16T05:24:45;96489.13;;;-0.54;58.38
55466;BME280;41329;41.594;23.810;2023-02-16T05:27:16;96475.53;;;-0.69;58.47
55466;BME280;41329;41.594;23.810;2023-02-16T05:29:41;96488.84;;;-0.63;59.28
55466;BME280;41329;41.594;23.810;2023-02-16T05:32:07;96488.28;;;-0.70;59.55
55466;BME280;41329;41.594;23.810;2023-02-16T05:34:33;96492.63;;;-0.74;59.93
55466;BME280;41329;41.594;23.810;2023-02-16T05:36:58;96501.34;;;-0.72;60.42
55466;BME280;41329;41.594;23.810;2023-02-16T05:39:24;96504.59;;;-0.70;60.69
55466;BME280;41329;41.594;23.810;2023-02-16T05:41:49;96479.31;;;-0.80;61.30
55466;BME280;41329;41.594;23.810;2023-02-16T05:44:15;96488.84;;;-0.73;61.49
55466;BME280;41329;41.594;23.810;2023-02-16T05:46:42;96506.50;;;-0.60;61.75
55466;BME280;41329;41.594;23.810;2023-02-16T05:49:08;96514.09;;;-0.52;62.11
55466;BME280;41329;41.594;23.810;2023-02-16T05:51:34;96509.22;;;-0.45;62.28
55466;BME280;41329;41.594;23.810;2023-02-16T05:54:01;96504.59;;;-0.40;62.56
55466;BME280;41329;41.594;23.810;2023-02-16T05:56:26;96508.09;;;-0.34;62.72
55466;BME280;41329;41.594;23.810;2023-02-16T05:58:52;96516.28;;;-0.54;62.54
55466;BME280;41329;41.594;23.810;2023-02-16T06:01:18;96504.06;;;-0.67;62.26
55466;BME280;41329;41.594;23.810;2023-02-16T06:03:44;96527.97;;;-0.54;62.33
55466;BME280;41329;41.594;23.810;2023-02-16T06:06:09;96536.94;;;-0.53;62.51
55466;BME280;41329;41.594;23.810;2023-02-16T06:08:36;96539.94;;;-0.50;62.45
55466;BME280;41329;41.594;23.810;2023-02-16T06:11:02;96539.41;;;-0.52;62.84
55466;BME280;41329;41.594;23.810;2023-02-16T06:13:28;96533.41;;;-0.64;62.65
55466;BME280;41329;41.594;23.810;2023-02-16T06:15:55;96551.88;;;-0.51;61.94
55466;BME280;41329;41.594;23.810;2023-02-16T06:18:23;96541.56;;;-0.54;61.92
55466;BME280;41329;41.594;23.810;2023-02-16T06:20:48;96553.78;;;-0.41;62.09
55466;BME280;41329;41.594;23.810;2023-02-16T06:23:14;96552.16;;;-0.52;62.16
55466;BME280;41329;41.594;23.810;2023-02-16T06:25:41;96545.38;;;-0.75;62.77
55466;BME280;41329;41.594;23.810;2023-02-16T06:28:07;96517.34;;;-1.10;63.31
55466;BME280;41329;41.594;23.810;2023-02-16T06:30:32;96545.59;;;-1.06;63.95
55466;BME280;41329;41.594;23.810;2023-02-16T06:33:00;96550.78;;;-1.15;64.67
55466;BME280;41329;41.594;23.810;2023-02-16T06:35:25;96530.94;;;-1.15;64.99
55466;BME280;41329;41.594;23.810;2023-02-16T06:37:51;96558.69;;;-0.83;65.04
55466;BME280;41329;41.594;23.810;2023-02-16T06:40:16;96513.00;;;-1.01;64.86
55466;BME280;41329;41.594;23.810;2023-02-16T06:42:43;96546.19;;;-0.64;65.11
55466;BME280;41329;41.594;23.810;2023-02-16T06:45:09;96558.41;;;-0.42;65.24
55466;BME280;41329;41.594;23.810;2023-02-16T06:47:35;96565.75;;;-0.37;65.14
55466;BME280;41329;41.594;23.810;2023-02-16T06:50:02;96553.75;;;-0.21;65.43
55466;BME280;41329;41.594;23.810;2023-02-16T06:52:27;96556.44;;;-0.01;65.16
55466;BME280;41329;41.594;23.810;2023-02-16T06:54:53;96550.97;;;0.14;64.83
55466;BME280;41329;41.594;23.810;2023-02-16T06:57:18;96555.56;;;0.24;64.78
55466;BME280;41329;41.594;23.810;2023-02-16T06:59:44;96554.44;;;0.30;64.34
55466;BME280;41329;41.594;23.810;2023-02-16T07:02:09;96553.94;;;0.28;64.37
55466;BME280;41329;41.594;23.810;2023-02-16T07:04:35;96557.16;;;0.35;64.48
55466;BME280;41329;41.594;23.810;2023-02-16T07:07:01;96549.19;;;0.48;64.91
55466;BME280;41329;41.594;23.810;2023-02-16T07:09:26;96555.94;;;0.61;64.76
55466;BME280;41329;41.594;23.810;2023-02-16T07:11:52;96561.84;;;0.78;64.61
55466;BME280;41329;41.594;23.810;2023-02-16T07:14:18;96561.03;;;0.82;64.39
55466;BME280;41329;41.594;23.810;2023-02-16T07:16:44;96555.34;;;0.74;64.48
55466;BME280;41329;41.594;23.810;2023-02-16T07:19:09;96559.88;;;0.88;64.97
55466;BME280;41329;41.594;23.810;2023-02-16T07:21:35;96563.09;;;1.00;65.05
55466;BME280;41329;41.594;23.810;2023-02-16T07:24:00;96553.72;;;1.16;65.10
55466;BME280;41329;41.594;23.810;2023-02-16T07:26:26;96557.75;;;1.29;64.83
55466;BME280;41329;41.594;23.810;2023-02-16T07:28:51;96535.09;;;1.28;65.11
55466;BME280;41329;41.594;23.810;2023-02-16T07:31:17;96553.94;;;1.25;64.32
55466;BME280;41329;41.594;23.810;2023-02-16T07:33:42;96558.94;;;1.46;65.16
55466;BME280;41329;41.594;23.810;2023-02-16T07:36:09;96555.19;;;1.37;65.00
55466;BME280;41329;41.594;23.810;2023-02-16T07:38:35;96536.75;;;1.24;65.29
55466;BME280;41329;41.594;23.810;2023-02-16T07:41:01;96557.47;;;1.25;65.33
55466;BME280;41329;41.594;23.810;2023-02-16T07:43:26;96552.47;;;1.37;65.89
55466;BME280;41329;41.594;23.810;2023-02-16T07:45:52;96535.75;;;1.49;65.84
55466;BME280;41329;41.594;23.810;2023-02-16T07:48:17;96537.50;;;1.68;65.87
55466;BME280;41329;41.594;23.810;2023-02-16T07:50:43;96547.25;;;2.03;66.31
55466;BME280;41329;41.594;23.810;2023-02-16T07:53:09;96545.72;;;2.20;64.57
55466;BME280;41329;41.594;23.810;2023-02-16T07:55:38;96546.91;;;2.33;64.44
55466;BME280;41329;41.594;23.810;2023-02-16T07:58:05;96531.66;;;2.32;64.91
55466;BME280;41329;41.594;23.810;2023-02-16T08:00:30;96523.28;;;2.47;64.54
55466;BME280;41329;41.594;23.810;2023-02-16T08:02:56;96523.97;;;2.57;63.87
55466;BME280;41329;41.594;23.810;2023-02-16T08:05:21;96539.56;;;2.75;63.84
55466;BME280;41329;41.594;23.810;2023-02-16T08:07:47;96528.28;;;3.00;63.67
55466;BME280;41329;41.594;23.810;2023-02-16T08:10:13;96531.59;;;2.97;62.75
55466;BME280;41329;41.594;23.810;2023-02-16T08:12:40;96539.03;;;3.15;62.20
55466;BME280;41329;41.594;23.810;2023-02-16T08:15:06;96523.66;;;3.19;61.89
55466;BME280;41329;41.594;23.810;2023-02-16T08:17:32;96534.28;;;3.21;61.04
55466;BME280;41329;41.594;23.810;2023-02-16T08:19:58;96540.19;;;3.28;61.41
55466;BME280;41329;41.594;23.810;2023-02-16T08:22:23;96525.72;;;2.90;62.18
55466;BME280;41329;41.594;23.810;2023-02-16T08:24:49;96532.06;;;3.04;62.19
55466;BME280;41329;41.594;23.810;2023-02-16T08:27:15;96536.41;;;3.05;62.89
55466;BME280;41329;41.594;23.810;2023-02-16T08:29:41;96535.00;;;3.08;62.31
55466;BME280;41329;41.594;23.810;2023-02-16T08:35:29;96532.44;;;3.35;61.42
55466;BME280;41329;41.594;23.810;2023-02-16T08:38:00;96540.03;;;3.38;60.29
55466;BME280;41329;41.594;23.810;2023-02-16T08:40:26;96538.41;;;3.37;60.84
55466;BME280;41329;41.594;23.810;2023-02-16T08:42:52;96539.44;;;3.41;61.16
55466;BME280;41329;41.594;23.810;2023-02-16T08:45:17;96535.84;;;3.59;61.29
55466;BME280;41329;41.594;23.810;2023-02-16T08:47:43;96537.47;;;3.78;62.45
55466;BME280;41329;41.594;23.810;2023-02-16T08:50:09;96536.69;;;4.05;62.02
55466;BME280;41329;41.594;23.810;2023-02-16T08:52:35;96544.28;;;4.40;62.05
55466;BME280;41329;41.594;23.810;2023-02-16T08:55:01;96518.81;;;4.53;60.64
55466;BME280;41329;41.594;23.810;2023-02-16T08:57:27;96527.94;;;4.75;58.58
55466;BME280;41329;41.594;23.810;2023-02-16T08:59:52;96533.38;;;5.02;59.09
55466;BME280;41329;41.594;23.810;2023-02-16T09:02:38;96512.97;;;5.08;58.12
55466;BME280;41329;41.594;23.810;2023-02-16T09:05:03;96514.25;;;5.11;57.25
55466;BME280;41329;41.594;23.810;2023-02-16T09:07:29;96529.56;;;5.25;56.95
55466;BME280;41329;41.594;23.810;2023-02-16T09:09:59;96524.84;;;5.39;57.91
55466;BME280;41329;41.594;23.810;2023-02-16T09:12:25;96531.78;;;5.59;55.90
55466;BME280;41329;41.594;23.810;2023-02-16T09:14:52;96529.59;;;5.47;55.38
55466;BME280;41329;41.594;23.810;2023-02-16T09:17:18;96520.94;;;5.54;56.29
55466;BME280;41329;41.594;23.810;2023-02-16T09:19:43;96529.13;;;5.89;56.73
55466;BME280;41329;41.594;23.810;2023-02-16T09:22:09;96519.16;;;5.93;53.70
55466;BME280;41329;41.594;23.810;2023-02-16T09:24:35;96532.16;;;6.10;54.72
55466;BME280;41329;41.594;23.810;2023-02-16T09:27:00;96483.53;;;6.10;54.06
55466;BME280;41329;41.594;23.810;2023-02-16T09:29:26;96512.19;;;6.57;55.12
55466;BME280;41329;41.594;23.810;2023-02-16T09:31:53;96520.53;;;6.83;52.81
55466;BME280;41329;41.594;23.810;2023-02-16T09:34:20;96507.28;;;6.93;51.97
55466;BME280;41329;41.594;23.810;2023-02-16T09:36:47;96516.41;;;7.11;50.13
55466;BME280;41329;41.594;23.810;2023-02-16T09:39:13;96512.03;;;7.18;51.71
55466;BME280;41329;41.594;23.810;2023-02-16T09:42:05;96508.81;;;7.59;52.50
55466;BME280;41329;41.594;23.810;2023-02-16T09:47:20;96499.75;;;7.67;49.43
55466;BME280;41329;41.594;23.810;2023-02-16T09:49:46;96490.03;;;7.61;48.49
55466;BME280;41329;41.594;23.810;2023-02-16T09:52:23;96440.97;;;7.54;49.35
55466;BME280;41329;41.594;23.810;2023-02-16T09:54:53;96484.34;;;7.83;45.54
55466;BME280;41329;41.594;23.810;2023-02-16T10:00:23;96487.88;;;8.00;46.91
55466;BME280;41329;41.594;23.810;2023-02-16T10:08:45;96481.94;;;8.36;46.29
55466;BME280;41329;41.594;23.810;2023-02-16T10:11:13;96475.28;;;8.45;44.42
55466;BME280;41329;41.594;23.810;2023-02-16T10:25:11;96449.50;;;8.99;42.68
55466;BME280;41329;41.594;23.810;2023-02-16T10:27:40;96429.13;;;8.92;43.32
55466;BME280;41329;41.594;23.810;2023-02-16T10:32:39;96436.28;;;9.34;43.35
55466;BME280;41329;41.594;23.810;2023-02-16T10:35:15;96410.94;;;9.52;43.45
55466;BME280;41329;41.594;23.810;2023-02-16T10:43:20;96418.41;;;10.05;39.76
55466;BME280;41329;41.594;23.810;2023-02-16T10:45:54;96417.84;;;9.91;41.11
55466;BME280;41329;41.594;23.810;2023-02-16T10:48:21;96397.06;;;9.73;40.76
55466;BME280;41329;41.594;23.810;2023-02-16T10:51:16;96406.59;;;9.96;41.12
55466;BME280;41329;41.594;23.810;2023-02-16T10:53:51;96399.53;;;10.19;41.22
55466;BME280;41329;41.594;23.810;2023-02-16T10:56:31;96402.31;;;10.43;40.04
55466;BME280;41329;41.594;23.810;2023-02-16T10:59:05;96398.28;;;10.28;40.19
55466;BME280;41329;41.594;23.810;2023-02-16T11:01:37;96392.63;;;10.49;40.42
55466;BME280;41329;41.594;23.810;2023-02-16T11:04:04;96370.28;;;10.42;42.00
55466;BME280;41329;41.594;23.810;2023-02-16T11:06:30;96374.06;;;10.73;41.13
55466;BME280;41329;41.594;23.810;2023-02-16T11:08:57;96378.06;;;11.00;40.36
55466;BME280;41329;41.594;23.810;2023-02-16T11:13:59;96323.34;;;10.69;39.30
55466;BME280;41329;41.594;23.810;2023-02-16T11:16:25;96374.59;;;11.03;40.44
55466;BME280;41329;41.594;23.810;2023-02-16T11:21:49;96356.75;;;11.28;39.43
55466;BME280;41329;41.594;23.810;2023-02-16T11:24:28;96360.31;;;11.40;39.88
55466;BME280;41329;41.594;23.810;2023-02-16T11:27:18;96353.16;;;11.67;41.75
55466;BME280;41329;41.594;23.810;2023-02-16T11:29:44;96362.00;;;12.15;39.38
55466;BME280;41329;41.594;23.810;2023-02-16T11:32:11;96341.50;;;12.04;37.73
55466;BME280;41329;41.594;23.810;2023-02-16T11:34:45;96351.09;;;12.22;39.68
55466;BME280;41329;41.594;23.810;2023-02-16T11:37:29;96345.38;;;12.47;38.69
55466;BME280;41329;41.594;23.810;2023-02-16T11:40:02;96331.47;;;12.62;38.48
55466;BME280;41329;41.594;23.810;2023-02-16T11:42:39;96338.75;;;13.01;39.23
55466;BME280;41329;41.594;23.810;2023-02-16T11:45:06;96330.97;;;12.91;36.60
55466;BME280;41329;41.594;23.810;2023-02-16T11:47:35;96331.84;;;12.95;37.51
55466;BME280;41329;41.594;23.810;2023-02-16T11:50:21;96309.06;;;13.05;37.67
55466;BME280;41329;41.594;23.810;2023-02-16T11:55:46;96322.34;;;13.31;37.55
55466;BME280;41329;41.594;23.810;2023-02-16T11:58:26;96319.75;;;13.60;35.28
55466;BME280;41329;41.594;23.810;2023-02-16T12:15:01;96300.91;;;13.50;36.52
55466;BME280;41329;41.594;23.810;2023-02-16T12:22:48;96284.41;;;14.02;35.81
55466;BME280;41329;41.594;23.810;2023-02-16T12:30:27;96274.41;;;14.69;34.32
55466;BME280;41329;41.594;23.810;2023-02-16T12:35:57;96262.44;;;14.68;33.60
55466;BME280;41329;41.594;23.810;2023-02-16T12:38:30;96261.91;;;14.85;33.95
55466;BME280;41329;41.594;23.810;2023-02-16T12:41:42;96267.81;;;15.10;33.69
55466;BME280;41329;41.594;23.810;2023-02-16T12:44:24;96251.19;;;15.17;32.91
55466;BME280;41329;41.594;23.810;2023-02-16T12:47:00;96254.22;;;15.05;32.67
55466;BME280;41329;41.594;23.810;2023-02-16T12:49:39;96236.25;;;15.02;34.40
55466;BME280;41329;41.594;23.810;2023-02-16T12:52:31;96241.16;;;15.38;33.29
55466;BME280;41329;41.594;23.810;2023-02-16T12:55:15;96243.28;;;15.52;32.58
55466;BME280;41329;41.594;23.810;2023-02-16T13:00:46;96241.34;;;15.96;33.04
55466;BME280;41329;41.594;23.810;2023-02-16T13:09:13;96214.09;;;15.82;31.01
55466;BME280;41329;41.594;23.810;2023-02-16T13:12:31;96243.00;;;16.00;31.50
55466;BME280;41329;41.594;23.810;2023-02-16T13:15:02;96229.72;;;15.87;31.36
55466;BME280;41329;41.594;23.810;2023-02-16T13:17:56;96229.81;;;15.97;31.72
55466;BME280;41329;41.594;23.810;2023-02-16T13:20:23;96225.81;;;15.95;30.81
55466;BME280;41329;41.594;23.810;2023-02-16T13:23:00;96230.03;;;16.25;31.07
55466;BME280;41329;41.594;23.810;2023-02-16T13:31:17;96227.88;;;16.48;30.64
55466;BME280;41329;41.594;23.810;2023-02-16T13:36:39;96229.88;;;16.04;29.97
55466;BME280;41329;41.594;23.810;2023-02-16T13:45:23;96206.75;;;16.07;29.58
55466;BME280;41329;41.594;23.810;2023-02-16T13:47:51;96221.63;;;16.18;29.49
55466;BME280;41329;41.594;23.810;2023-02-16T13:52:50;96216.72;;;16.52;30.54
55466;BME280;41329;41.594;23.810;2023-02-16T13:55:29;96217.72;;;16.80;30.28
55466;BME280;41329;41.594;23.810;2023-02-16T13:58:25;96224.59;;;16.93;30.45
55466;BME280;41329;41.594;23.810;2023-02-16T14:00:51;96202.19;;;16.86;29.00
55466;BME280;41329;41.594;23.810;2023-02-16T14:05:46;96217.19;;;17.29;29.50
55466;BME280;41329;41.594;23.810;2023-02-16T14:08:28;96220.72;;;17.15;27.82
55466;BME280;41329;41.594;23.810;2023-02-16T14:10:56;96212.66;;;17.03;28.35
55466;BME280;41329;41.594;23.810;2023-02-16T14:15:53;96214.78;;;17.31;28.88
55466;BME280;41329;41.594;23.810;2023-02-16T14:21:16;96211.75;;;17.74;28.72
55466;BME280;41329;41.594;23.810;2023-02-16T14:23:42;96210.22;;;18.05;28.50
55466;BME280;41329;41.594;23.810;2023-02-16T14:26:08;96191.41;;;18.23;28.97
55466;BME280;41329;41.594;23.810;2023-02-16T14:34:36;96207.34;;;18.96;27.63
55466;BME280;41329;41.594;23.810;2023-02-16T14:39:41;96200.97;;;18.96;26.11
55466;BME280;41329;41.594;23.810;2023-02-16T14:42:28;96202.88;;;19.16;26.73
55466;BME280;41329;41.594;23.810;2023-02-16T14:45:19;96201.03;;;19.78;26.37
55466;BME280;41329;41.594;23.810;2023-02-16T14:47:53;96201.22;;;20.15;26.20
55466;BME280;41329;41.594;23.810;2023-02-16T14:58:44;96201.63;;;21.42;23.80
55466;BME280;41329;41.594;23.810;2023-02-16T15:01:14;96188.88;;;21.31;24.09
55466;BME280;41329;41.594;23.810;2023-02-16T15:03:46;96206.66;;;21.24;23.95
55466;BME280;41329;41.594;23.810;2023-02-16T15:06:29;96209.19;;;21.12;23.28
55466;BME280;41329;41.594;23.810;2023-02-16T15:08:59;96197.94;;;21.12;24.22
55466;BME280;41329;41.594;23.810;2023-02-16T15:11:31;96203.59;;;21.45;24.06
55466;BME280;41329;41.594;23.810;2023-02-16T15:14:09;96209.69;;;21.74;23.99
55466;BME280;41329;41.594;23.810;2023-02-16T15:16:57;96211.13;;;21.85;23.54
55466;BME280;41329;41.594;23.810;2023-02-16T15:19:27;96190.25;;;21.83;23.52
55466;BME280;41329;41.594;23.810;2023-02-16T15:22:18;96212.13;;;22.02;23.05
55466;BME280;41329;41.594;23.810;2023-02-16T15:27:24;96219.56;;;21.55;23.08
55466;BME280;41329;41.594;23.810;2023-02-16T15:30:23;96217.81;;;20.98;23.23
55466;BME280;41329;41.594;23.810;2023-02-16T15:32:52;96218.22;;;20.49;24.24
55466;BME280;41329;41.594;23.810;2023-02-16T15:35:25;96221.31;;;20.07;24.34
55466;BME280;41329;41.594;23.810;2023-02-16T15:38:06;96201.28;;;19.22;24.81
55466;BME280;41329;41.594;23.810;2023-02-16T15:40:32;96224.22;;;18.65;25.47
55466;BME280;41329;41.594;23.810;2023-02-16T15:43:07;96227.00;;;17.98;26.25
55466;BME280;41329;41.594;23.810;2023-02-16T15:45:35;96220.09;;;17.57;27.04
55466;BME280;41329;41.594;23.810;2023-02-16T15:50:53;96224.50;;;16.79;28.06